Time;durP1;ratioP1;P1;durP2;ratioP2;P2;SDS_P1;SDS_P2;PMS_P1;PMS_P2;Temp;Humidity;BMP_temperature;BMP_pressure;BME280_temperature;BME280_humidity;BME280_pressure;Samples;Min_cycle;Max_cycle;Signal;HPM_P1;HPM_P2
2020/12/09 00:00:13;;;;;;;33.40;17.52;;;3.50;99.90;;;;;;5044603;28;20018;-57
2020/12/09 00:02:39;;;;;;;40.85;21.10;;;3.50;99.90;;;;;;5032899;28;20395;-59
2020/12/09 00:05:08;;;;;;;36.13;21.08;;;3.50;99.90;;;;;;5021795;28;20023;-57
2020/12/09 00:07:35;;;;;;;37.10;20.63;;;3.50;99.90;;;;;;5034463;28;20395;-58
2020/12/09 00:10:01;;;;;;;38.22;21.65;;;3.50;99.90;;;;;;5034659;28;20033;-58
2020/12/09 00:12:30;;;;;;;36.95;20.90;;;3.60;99.90;;;;;;4974359;28;20056;-59
2020/12/09 00:14:56;;;;;;;36.35;22.10;;;3.50;99.90;;;;;;5018191;28;20091;-58
2020/12/09 00:17:22;;;;;;;41.47;22.90;;;3.50;99.90;;;;;;5026129;28;20041;-58
2020/12/09 00:19:47;;;;;;;46.35;24.65;;;3.60;99.90;;;;;;5019556;28;20040;-58
2020/12/09 00:22:13;;;;;;;37.30;22.08;;;3.60;99.90;;;;;;5005013;28;20033;-59
2020/12/09 00:24:38;;;;;;;41.67;22.40;;;3.60;99.90;;;;;;5018187;28;20030;-59
2020/12/09 00:27:04;;;;;;;38.25;21.50;;;3.60;99.90;;;;;;5019704;28;20048;-59
2020/12/09 00:29:30;;;;;;;44.72;22.27;;;3.60;99.90;;;;;;5017586;28;20045;-58
2020/12/09 00:31:55;;;;;;;39.47;22.60;;;3.60;99.90;;;;;;5017571;28;20034;-57
2020/12/09 00:34:21;;;;;;;38.22;21.60;;;3.70;99.90;;;;;;5018548;28;20039;-58
2020/12/09 00:36:46;;;;;;;35.33;20.85;;;3.70;99.90;;;;;;5024060;28;20073;-57
2020/12/09 00:39:12;;;;;;;37.50;22.08;;;3.70;99.90;;;;;;5015516;28;20066;-57
2020/12/09 00:41:37;;;;;;;36.58;20.42;;;3.70;99.90;;;;;;5013806;28;20049;-60
2020/12/09 00:44:03;;;;;;;39.83;20.73;;;3.70;99.90;;;;;;5020953;28;20033;-59
2020/12/09 00:46:29;;;;;;;37.83;20.77;;;3.60;99.90;;;;;;5020243;28;20033;-58
2020/12/09 00:48:56;;;;;;;36.95;21.70;;;3.60;99.90;;;;;;5017411;28;20125;-57
2020/12/09 00:51:24;;;;;;;37.20;20.48;;;3.70;99.90;;;;;;5020778;28;20445;-58
2020/12/09 00:53:50;;;;;;;38.20;20.50;;;3.70;99.90;;;;;;5030211;28;20506;-59
2020/12/09 00:56:16;;;;;;;35.30;21.02;;;3.70;99.90;;;;;;5036018;28;20061;-60
2020/12/09 00:58:41;;;;;;;37.08;20.35;;;3.70;99.90;;;;;;5021498;28;20538;-57
2020/12/09 01:01:09;;;;;;;35.75;20.15;;;3.70;99.90;;;;;;5043446;28;20050;-59
2020/12/09 01:03:36;;;;;;;36.80;18.88;;;3.70;99.90;;;;;;5014229;28;20025;-56
2020/12/09 01:06:03;;;;;;;33.75;19.05;;;3.80;99.90;;;;;;5025845;28;20043;-60
2020/12/09 01:08:29;;;;;;;31.50;17.08;;;3.70;99.90;;;;;;5028571;28;20037;-59
2020/12/09 01:10:55;;;;;;;30.63;18.30;;;3.80;99.90;;;;;;5027779;28;20427;-58
2020/12/09 01:13:21;;;;;;;32.17;17.35;;;3.70;99.90;;;;;;5038195;28;20041;-58
2020/12/09 01:15:46;;;;;;;30.58;17.00;;;3.70;99.90;;;;;;5029021;28;20042;-58
2020/12/09 01:18:12;;;;;;;28.95;17.52;;;3.70;99.90;;;;;;5042622;28;20083;-60
2020/12/09 01:20:38;;;;;;;25.38;16.90;;;3.70;99.90;;;;;;5029344;28;20030;-58
2020/12/09 01:23:04;;;;;;;28.67;18.13;;;3.70;99.90;;;;;;5038829;28;20090;-59
2020/12/09 01:25:30;;;;;;;29.77;17.35;;;3.70;99.90;;;;;;5030463;28;20033;-59
2020/12/09 01:28:03;;;;;;;30.80;17.88;;;3.60;99.90;;;;;;5026994;28;20029;-59
2020/12/09 01:30:30;;;;;;;28.03;17.27;;;3.70;99.90;;;;;;5030248;28;20064;-59
2020/12/09 01:32:56;;;;;;;31.08;18.90;;;3.60;99.90;;;;;;5039502;28;20761;-59
2020/12/09 01:35:22;;;;;;;28.77;17.42;;;3.70;99.90;;;;;;5029116;28;20033;-60
2020/12/09 01:37:48;;;;;;;30.80;17.20;;;3.60;99.90;;;;;;5033361;28;20029;-58
2020/12/09 01:40:14;;;;;;;29.60;17.02;;;3.70;99.90;;;;;;5029896;28;20063;-60
2020/12/09 01:42:39;;;;;;;32.03;17.70;;;3.70;99.90;;;;;;5042275;28;20025;-60
2020/12/09 01:45:05;;;;;;;29.73;17.85;;;3.70;99.90;;;;;;5038991;28;20021;-59
2020/12/09 01:47:31;;;;;;;37.53;20.20;;;3.70;99.90;;;;;;5035080;28;20121;-60
2020/12/09 01:49:58;;;;;;;31.40;19.73;;;3.70;99.90;;;;;;5045416;28;20033;-59
2020/12/09 01:52:25;;;;;;;31.63;19.50;;;3.70;99.90;;;;;;5038720;28;20059;-59
2020/12/09 01:54:55;;;;;;;33.00;19.92;;;3.80;99.90;;;;;;5039758;28;20030;-59
2020/12/09 01:57:21;;;;;;;32.60;19.85;;;3.80;99.90;;;;;;5041437;28;20041;-60
2020/12/09 01:59:47;;;;;;;36.17;21.08;;;3.80;99.90;;;;;;5044448;28;20394;-60
2020/12/09 02:02:16;;;;;;;38.28;21.60;;;3.80;99.90;;;;;;5038666;28;20044;-60
2020/12/09 02:04:42;;;;;;;37.90;21.55;;;3.80;99.90;;;;;;5039254;28;20090;-60
2020/12/09 02:07:08;;;;;;;39.75;23.58;;;3.80;99.90;;;;;;5048130;28;20025;-59
2020/12/09 02:09:34;;;;;;;37.15;20.88;;;3.80;99.90;;;;;;5036438;28;20056;-58
2020/12/09 02:12:00;;;;;;;44.25;22.73;;;3.70;99.90;;;;;;5039933;28;20056;-59
2020/12/09 02:14:27;;;;;;;38.88;23.55;;;3.80;99.90;;;;;;5037468;28;20040;-59
2020/12/09 02:16:55;;;;;;;40.22;22.98;;;3.80;99.90;;;;;;5043305;28;20655;-60
2020/12/09 02:19:21;;;;;;;43.28;23.50;;;3.80;99.90;;;;;;5048105;28;20410;-57
2020/12/09 02:21:47;;;;;;;43.42;23.73;;;3.70;99.90;;;;;;5039682;28;20049;-58
2020/12/09 02:24:13;;;;;;;44.25;24.63;;;3.70;99.90;;;;;;5041512;28;20110;-58
2020/12/09 02:26:43;;;;;;;41.90;23.05;;;3.70;99.90;;;;;;5045821;28;20061;-59
2020/12/09 02:29:10;;;;;;;44.72;25.17;;;3.70;99.90;;;;;;5033074;28;20029;-59
2020/12/09 02:31:36;;;;;;;43.28;25.38;;;3.70;99.90;;;;;;5043560;28;20045;-58
2020/12/09 02:34:02;;;;;;;39.70;23.50;;;3.70;99.90;;;;;;5038538;28;20067;-58
2020/12/09 02:36:27;;;;;;;42.97;24.02;;;3.70;99.90;;;;;;5037153;28;20037;-58
2020/12/09 02:38:53;;;;;;;46.15;24.55;;;3.70;99.90;;;;;;5049063;28;20047;-59
2020/12/09 02:41:19;;;;;;;49.60;26.45;;;3.70;99.90;;;;;;5045889;28;20033;-59
2020/12/09 02:43:44;;;;;;;49.58;25.80;;;3.70;99.90;;;;;;5042936;28;20026;-58
2020/12/09 02:46:10;;;;;;;47.13;26.13;;;3.70;99.90;;;;;;5044982;28;20059;-58
2020/12/09 02:48:35;;;;;;;50.53;26.13;;;3.70;99.90;;;;;;5043965;28;20061;-58
2020/12/09 02:51:01;;;;;;;51.40;26.98;;;3.60;99.90;;;;;;5044600;28;20475;-58
2020/12/09 02:53:26;;;;;;;46.30;24.90;;;3.60;99.90;;;;;;5044979;28;20557;-59
2020/12/09 02:55:52;;;;;;;46.92;25.88;;;3.60;99.90;;;;;;5045015;28;20475;-58
2020/12/09 02:58:17;;;;;;;53.35;27.73;;;3.60;99.90;;;;;;5045156;28;20025;-59
2020/12/09 03:00:43;;;;;;;52.75;27.65;;;3.60;99.90;;;;;;5043378;28;20532;-60
2020/12/09 03:03:09;;;;;;;53.83;26.27;;;3.70;99.90;;;;;;5044414;28;20021;-59
2020/12/09 03:05:34;;;;;;;56.22;29.25;;;3.60;99.90;;;;;;5044927;28;20060;-59
2020/12/09 03:08:00;;;;;;;52.38;27.77;;;3.60;99.90;;;;;;5044129;28;20044;-58
2020/12/09 03:10:25;;;;;;;57.22;29.52;;;3.60;99.90;;;;;;5047833;28;20018;-59
2020/12/09 03:12:51;;;;;;;53.10;28.70;;;3.50;99.90;;;;;;5043520;28;20260;-59
2020/12/09 03:15:17;;;;;;;52.40;27.42;;;3.60;99.90;;;;;;5045164;28;20018;-59
2020/12/09 03:17:42;;;;;;;52.20;27.70;;;3.60;99.90;;;;;;5042883;28;20021;-58
2020/12/09 03:20:08;;;;;;;55.40;27.98;;;3.50;99.90;;;;;;5041255;28;20017;-60
2020/12/09 03:22:33;;;;;;;55.80;27.90;;;3.50;99.90;;;;;;5044427;28;20021;-58
2020/12/09 03:24:59;;;;;;;51.60;27.73;;;3.60;99.90;;;;;;5047764;28;20017;-60
2020/12/09 03:27:24;;;;;;;51.30;28.02;;;3.50;99.90;;;;;;5043559;28;20029;-56
2020/12/09 03:29:50;;;;;;;52.55;28.98;;;3.50;99.90;;;;;;5042973;28;20051;-59
2020/12/09 03:32:15;;;;;;;51.33;28.58;;;3.50;99.90;;;;;;5047166;28;20390;-58
2020/12/09 03:34:41;;;;;;;56.60;27.23;;;3.50;99.90;;;;;;5029484;28;20533;-60
2020/12/09 03:37:06;;;;;;;53.85;28.38;;;3.50;99.90;;;;;;5032140;28;20029;-57
2020/12/09 03:39:32;;;;;;;54.13;28.75;;;3.50;99.90;;;;;;5031523;28;20034;-60
2020/12/09 03:41:57;;;;;;;49.13;27.05;;;3.40;99.90;;;;;;5038241;28;20036;-59
2020/12/09 03:44:23;;;;;;;50.13;27.05;;;3.50;99.90;;;;;;5044686;28;20029;-59
2020/12/09 03:46:49;;;;;;;48.67;27.83;;;3.50;99.90;;;;;;5042979;28;20022;-60
2020/12/09 03:49:14;;;;;;;58.80;28.30;;;3.40;99.90;;;;;;5044605;28;20029;-58
2020/12/09 03:51:40;;;;;;;61.38;29.02;;;3.40;99.90;;;;;;5038576;28;20139;-60
2020/12/09 03:54:05;;;;;;;55.10;29.95;;;3.40;99.90;;;;;;5032855;28;20033;-60
2020/12/09 03:56:31;;;;;;;55.40;29.38;;;3.40;99.90;;;;;;5044363;28;20040;-59
2020/12/09 03:58:56;;;;;;;54.20;29.35;;;3.40;99.90;;;;;;5027674;28;20060;-59
2020/12/09 04:01:22;;;;;;;52.15;28.90;;;3.40;99.90;;;;;;5044689;28;20082;-59
2020/12/09 04:03:47;;;;;;;59.60;30.35;;;3.40;99.90;;;;;;5042672;28;20025;-60
2020/12/09 04:06:13;;;;;;;56.33;28.60;;;3.30;99.90;;;;;;5044298;28;20091;-60
2020/12/09 04:08:39;;;;;;;54.55;30.45;;;3.30;99.90;;;;;;5043203;28;20025;-61
2020/12/09 04:11:04;;;;;;;60.00;29.42;;;3.30;99.90;;;;;;5043273;28;20025;-58
2020/12/09 04:13:30;;;;;;;54.92;28.90;;;3.30;99.90;;;;;;5044052;28;20518;-59
2020/12/09 04:15:55;;;;;;;53.17;28.60;;;3.30;99.90;;;;;;5041486;28;20093;-59
2020/12/09 04:18:21;;;;;;;57.55;29.98;;;3.30;99.90;;;;;;5043463;28;20025;-59
2020/12/09 04:20:46;;;;;;;56.80;30.50;;;3.30;99.90;;;;;;5042113;28;20028;-58
2020/12/09 04:23:12;;;;;;;53.15;29.58;;;3.30;99.90;;;;;;5041568;28;20034;-59
2020/12/09 04:25:38;;;;;;;54.53;30.52;;;3.20;99.90;;;;;;5044332;28;20025;-59
2020/12/09 04:28:03;;;;;;;56.63;30.55;;;3.20;99.90;;;;;;5033436;28;20433;-59
2020/12/09 04:30:29;;;;;;;58.95;31.00;;;3.30;99.90;;;;;;5045360;28;20545;-58
2020/12/09 04:32:54;;;;;;;58.83;31.23;;;3.20;99.90;;;;;;5041458;28;20104;-59
2020/12/09 04:35:20;;;;;;;56.40;30.10;;;3.20;99.90;;;;;;5039159;28;20477;-57
2020/12/09 04:37:46;;;;;;;53.17;29.58;;;3.20;99.90;;;;;;5042314;28;20080;-58
2020/12/09 04:40:12;;;;;;;62.67;31.40;;;3.20;99.90;;;;;;5040025;28;20037;-59
2020/12/09 04:42:38;;;;;;;57.42;31.08;;;3.20;99.90;;;;;;5045652;28;20017;-58
2020/12/09 04:45:04;;;;;;;57.15;29.45;;;3.20;99.90;;;;;;5033271;28;20024;-59
2020/12/09 04:47:45;;;;;;;56.30;28.52;;;3.20;99.90;;;;;;5045239;28;20103;-56
2020/12/09 04:50:13;;;;;;;54.17;30.02;;;3.20;99.90;;;;;;5036112;28;20025;-60
2020/12/09 04:53:10;;;;;;;53.17;28.98;;;3.20;99.90;;;;;;5046924;28;20303;-56
2020/12/09 04:55:48;;;;;;;54.08;30.25;;;3.10;99.90;;;;;;5039231;28;20038;-57
2020/12/09 04:58:40;;;;;;;56.67;29.77;;;3.20;99.90;;;;;;5028985;28;20516;-58
2020/12/09 05:01:10;;;;;;;54.95;29.77;;;3.10;99.90;;;;;;5043379;28;20021;-58
2020/12/09 05:03:44;;;;;;;55.40;28.67;;;3.10;99.90;;;;;;5038682;28;20036;-60
2020/12/09 05:06:13;;;;;;;54.80;30.70;;;3.10;99.90;;;;;;5032285;28;20017;-58
2020/12/09 05:08:43;;;;;;;57.72;30.85;;;3.20;99.90;;;;;;5042108;28;20037;-59
2020/12/09 05:11:11;;;;;;;59.05;29.60;;;3.20;99.90;;;;;;5032685;28;20021;-59
2020/12/09 05:13:42;;;;;;;58.75;30.73;;;3.20;99.90;;;;;;5037215;28;20744;-58
2020/12/09 05:16:10;;;;;;;49.90;29.27;;;3.20;99.90;;;;;;5033381;28;20544;-59
2020/12/09 05:18:42;;;;;;;51.83;29.25;;;3.10;99.90;;;;;;5035411;28;20466;-58
2020/12/09 05:21:28;;;;;;;67.05;33.08;;;3.10;99.90;;;;;;5039684;28;20035;-59
2020/12/09 05:23:59;;;;;;;60.38;29.48;;;3.20;99.90;;;;;;5034850;28;20105;-57
2020/12/09 05:26:29;;;;;;;49.88;29.40;;;3.20;99.90;;;;;;5040009;28;20029;-58
2020/12/09 05:29:11;;;;;;;55.83;31.77;;;3.20;99.90;;;;;;5041234;28;20026;-58
2020/12/09 05:31:39;;;;;;;57.67;30.70;;;3.20;99.90;;;;;;5041219;28;20029;-56
2020/12/09 05:34:22;;;;;;;59.03;29.42;;;3.20;99.90;;;;;;5040824;28;20475;-57
2020/12/09 05:36:49;;;;;;;57.17;29.55;;;3.10;99.90;;;;;;5036883;28;20025;-59
2020/12/09 05:39:15;;;;;;;67.72;34.88;;;3.10;99.90;;;;;;5042653;28;20064;-60
2020/12/09 05:41:41;;;;;;;59.20;29.67;;;3.10;99.90;;;;;;5040022;28;20506;-59
2020/12/09 05:44:06;;;;;;;58.10;30.90;;;3.10;99.90;;;;;;5042822;28;20033;-59
2020/12/09 05:46:32;;;;;;;60.63;29.33;;;3.20;99.90;;;;;;5034228;28;20635;-59
2020/12/09 05:48:58;;;;;;;57.00;30.50;;;3.20;99.90;;;;;;5032462;28;20125;-59
2020/12/09 05:51:24;;;;;;;55.53;31.00;;;3.20;99.90;;;;;;5035074;28;20029;-59
2020/12/09 05:53:50;;;;;;;59.30;30.38;;;3.20;99.90;;;;;;5037033;28;20042;-59
2020/12/09 05:56:18;;;;;;;60.08;30.20;;;3.20;99.90;;;;;;5036314;28;20033;-58
2020/12/09 05:58:46;;;;;;;55.90;29.20;;;3.20;99.90;;;;;;5040488;28;20471;-60
2020/12/09 06:01:19;;;;;;;51.97;29.35;;;3.20;99.90;;;;;;5046441;28;20494;-60
2020/12/09 06:03:48;;;;;;;50.85;29.85;;;3.10;99.90;;;;;;5043272;28;20025;-60
2020/12/09 06:06:28;;;;;;;54.55;28.13;;;3.10;99.90;;;;;;5039659;28;20394;-60
2020/12/09 06:08:58;;;;;;;51.63;27.60;;;3.10;99.90;;;;;;5035994;28;20030;-59
2020/12/09 06:11:42;;;;;;;58.85;28.77;;;3.10;99.90;;;;;;5043444;28;20029;-60
2020/12/09 06:14:16;;;;;;;57.22;29.17;;;3.10;99.90;;;;;;5042658;28;20044;-59
2020/12/09 06:16:43;;;;;;;59.80;27.42;;;3.10;99.90;;;;;;5048957;28;20037;-60
2020/12/09 06:19:09;;;;;;;58.85;29.20;;;3.20;99.90;;;;;;5029833;28;20028;-59
2020/12/09 06:21:35;;;;;;;52.40;29.42;;;3.10;99.90;;;;;;5037291;28;20022;-60
2020/12/09 06:24:02;;;;;;;64.45;32.38;;;3.00;99.90;;;;;;5034117;28;20021;-60
2020/12/09 06:26:27;;;;;;;59.42;31.33;;;3.00;99.90;;;;;;5033576;28;20387;-60
2020/12/09 06:28:53;;;;;;;52.55;29.08;;;3.00;99.90;;;;;;5033795;28;20033;-58
2020/12/09 06:31:21;;;;;;;57.70;29.95;;;3.00;99.90;;;;;;5034099;28;20022;-58
2020/12/09 06:33:51;;;;;;;57.03;30.38;;;3.00;99.90;;;;;;5045143;28;20057;-59
2020/12/09 06:36:31;;;;;;;62.13;29.30;;;3.00;99.90;;;;;;5039934;28;20108;-57
2020/12/09 06:39:11;;;;;;;58.90;31.42;;;3.00;99.90;;;;;;5044348;28;20040;-60
2020/12/09 06:42:00;;;;;;;56.72;30.58;;;3.00;99.90;;;;;;5043516;28;20017;-59
2020/12/09 06:44:30;;;;;;;65.55;32.05;;;3.00;99.90;;;;;;5037417;28;20429;-58
2020/12/09 06:46:57;;;;;;;59.47;32.15;;;3.00;99.90;;;;;;5043773;28;20632;-60
2020/12/09 06:49:32;;;;;;;62.03;31.23;;;3.10;99.90;;;;;;5045338;28;20525;-59
2020/12/09 06:51:58;;;;;;;72.38;36.08;;;3.00;99.90;;;;;;5027024;28;20045;-61
2020/12/09 06:54:43;;;;;;;210.55;91.90;;;3.00;99.90;;;;;;5033396;28;20542;-60
2020/12/09 06:57:19;;;;;;;;;;;3.10;99.90;;;;;;5031698;28;20440;-60
2020/12/09 06:59:47;;;;;;;89.30;44.60;;;3.10;99.90;;;;;;5041521;28;19908;-60
2020/12/09 07:02:25;;;;;;;75.22;38.42;;;3.00;99.90;;;;;;5041096;28;20129;-58
2020/12/09 07:04:54;;;;;;;71.43;34.88;;;3.00;99.90;;;;;;5048492;28;20386;-59
2020/12/09 07:07:26;;;;;;;67.20;34.65;;;3.10;99.90;;;;;;5041609;28;20025;-60
2020/12/09 07:09:52;;;;;;;64.25;32.40;;;3.10;99.90;;;;;;5049305;28;20032;-58
2020/12/09 07:12:19;;;;;;;63.05;32.10;;;3.10;99.90;;;;;;5042585;28;20026;-60
2020/12/09 07:14:51;;;;;;;58.08;30.42;;;3.10;99.90;;;;;;5040746;28;20032;-58
2020/12/09 07:17:17;;;;;;;56.53;30.48;;;3.10;99.90;;;;;;5045488;28;20030;-59
2020/12/09 07:19:43;;;;;;;62.00;31.75;;;3.00;99.90;;;;;;5038912;28;20030;-59
2020/12/09 07:22:09;;;;;;;65.28;34.88;;;3.10;99.90;;;;;;5045794;28;20434;-60
2020/12/09 07:24:34;;;;;;;70.20;34.65;;;3.00;99.90;;;;;;5037193;28;20513;-59
2020/12/09 07:27:00;;;;;;;64.05;33.95;;;3.00;99.90;;;;;;5045624;28;20025;-59
2020/12/09 07:29:26;;;;;;;72.18;36.13;;;3.00;99.90;;;;;;5044891;28;20025;-58
2020/12/09 07:31:58;;;;;;;65.25;35.08;;;3.00;99.90;;;;;;5042814;28;20052;-60
2020/12/09 07:34:23;;;;;;;65.38;34.50;;;3.00;99.90;;;;;;5045132;28;20461;-59
2020/12/09 07:36:51;;;;;;;67.78;35.10;;;3.00;99.90;;;;;;5040810;28;20021;-60
2020/12/09 07:39:32;;;;;;;68.35;34.53;;;3.00;99.90;;;;;;5044886;28;20368;-60
2020/12/09 07:42:00;;;;;;;72.85;35.53;;;3.00;99.90;;;;;;5039970;28;20018;-58
2020/12/09 07:44:26;;;;;;;64.25;34.53;;;3.00;99.90;;;;;;5044745;28;20090;-60
2020/12/09 07:46:57;;;;;;;69.15;35.40;;;3.00;99.90;;;;;;5042977;28;20026;-60
2020/12/09 07:49:24;;;;;;;66.95;34.28;;;3.00;99.90;;;;;;5044437;28;20036;-60
2020/12/09 07:51:51;;;;;;;73.63;35.33;;;3.00;99.90;;;;;;5036886;28;20033;-60
2020/12/09 07:54:18;;;;;;;68.80;35.70;;;3.00;99.90;;;;;;5044092;28;20375;-60
2020/12/09 07:56:44;;;;;;;83.35;40.70;;;3.00;99.90;;;;;;5035350;28;20033;-60
2020/12/09 07:59:12;;;;;;;144.20;72.95;;;3.00;99.90;;;;;;5042282;28;20028;-60
2020/12/09 08:01:37;;;;;;;135.05;68.28;;;3.00;99.90;;;;;;4958106;28;20103;-60
2020/12/09 08:04:03;;;;;;;135.82;81.13;;;3.00;99.90;;;;;;5028876;28;20461;-58
2020/12/09 08:06:29;;;;;;;102.88;56.50;;;3.00;99.90;;;;;;5037831;28;20013;-59
2020/12/09 08:08:54;;;;;;;74.28;40.85;;;3.00;99.90;;;;;;5032127;28;20406;-60
2020/12/09 08:11:21;;;;;;;87.32;43.35;;;3.10;99.90;;;;;;5037065;28;20021;-60
2020/12/09 08:13:46;;;;;;;98.55;46.92;;;3.10;99.90;;;;;;5031173;28;20106;-59
2020/12/09 08:16:13;;;;;;;86.85;44.67;;;3.10;99.90;;;;;;5034558;28;20096;-59
2020/12/09 08:18:43;;;;;;;80.13;40.22;;;3.00;99.90;;;;;;5035450;28;20029;-60
2020/12/09 08:21:09;;;;;;;69.75;36.45;;;3.10;99.90;;;;;;5032920;28;20029;-59
2020/12/09 08:23:43;;;;;;;76.45;38.15;;;3.10;99.90;;;;;;5021422;28;20044;-60
2020/12/09 08:26:10;;;;;;;66.60;34.67;;;3.10;99.90;;;;;;5025838;28;20165;-60
2020/12/09 08:28:36;;;;;;;68.65;33.08;;;3.20;99.90;;;;;;5028615;28;20502;-59
2020/12/09 08:31:19;;;;;;;69.65;35.78;;;3.30;99.90;;;;;;5040131;28;20499;-59
2020/12/09 08:33:45;;;;;;;79.03;35.72;;;3.30;99.90;;;;;;5027313;28;20033;-58
2020/12/09 08:36:15;;;;;;;69.40;36.22;;;3.20;99.90;;;;;;5036735;28;20398;-59
2020/12/09 08:38:49;;;;;;;74.88;35.20;;;3.20;99.90;;;;;;5027362;28;20080;-58
2020/12/09 08:41:35;;;;;;;68.30;36.20;;;3.20;99.90;;;;;;5039034;28;20044;-60
2020/12/09 08:44:03;;;;;;;68.38;35.22;;;3.20;99.90;;;;;;5029120;28;20518;-58
2020/12/09 08:46:29;;;;;;;72.68;36.35;;;3.20;99.90;;;;;;5038782;28;20167;-58
2020/12/09 08:48:57;;;;;;;67.35;37.00;;;3.30;99.90;;;;;;5032926;28;20053;-60
2020/12/09 08:51:30;;;;;;;71.25;36.22;;;3.20;99.90;;;;;;5038610;28;20051;-59
2020/12/09 08:53:57;;;;;;;78.10;38.83;;;3.30;99.90;;;;;;5034716;28;20022;-59
2020/12/09 08:56:27;;;;;;;73.22;38.67;;;3.40;99.90;;;;;;5038977;28;20040;-59
2020/12/09 08:58:53;;;;;;;73.63;36.83;;;3.30;99.90;;;;;;5033758;28;20030;-60
2020/12/09 09:01:19;;;;;;;124.38;62.33;;;3.40;99.90;;;;;;4997628;28;20053;-59
2020/12/09 09:03:46;;;;;;;86.10;43.92;;;3.30;99.90;;;;;;5023876;28;20076;-60
2020/12/09 09:06:12;;;;;;;73.72;37.05;;;3.40;99.90;;;;;;5031445;28;20083;-60
2020/12/09 09:08:37;;;;;;;68.72;37.80;;;3.50;99.90;;;;;;5037330;28;20473;-60
2020/12/09 09:11:03;;;;;;;62.40;34.67;;;3.50;99.90;;;;;;5038179;28;20017;-58
2020/12/09 09:13:28;;;;;;;83.93;43.13;;;3.50;99.90;;;;;;5036718;28;20036;-58
2020/12/09 09:15:54;;;;;;;70.85;35.50;;;3.50;99.90;;;;;;5025781;28;20052;-60
2020/12/09 09:18:20;;;;;;;62.38;34.75;;;3.50;99.90;;;;;;5026549;28;20032;-58
2020/12/09 09:20:45;;;;;;;70.55;33.53;;;3.50;99.90;;;;;;5025143;28;20033;-60
2020/12/09 09:23:11;;;;;;;76.07;36.55;;;3.50;99.90;;;;;;5018808;28;20029;-56
2020/12/09 09:25:36;;;;;;;102.80;45.53;;;3.60;99.90;;;;;;5024953;28;20055;-59
2020/12/09 09:28:03;;;;;;;143.10;60.20;;;3.60;99.90;;;;;;5027410;28;20025;-58
2020/12/09 09:30:28;;;;;;;67.03;35.67;;;3.60;99.90;;;;;;5040008;28;20106;-59
2020/12/09 09:32:54;;;;;;;60.28;32.75;;;3.70;99.90;;;;;;5029635;28;20103;-58
2020/12/09 09:35:20;;;;;;;65.75;34.20;;;3.80;99.90;;;;;;5032832;28;20037;-59
2020/12/09 09:37:46;;;;;;;66.82;31.95;;;3.80;99.90;;;;;;5030126;28;20438;-59
2020/12/09 09:40:12;;;;;;;71.93;33.50;;;3.80;99.90;;;;;;5036081;28;20083;-59
2020/12/09 09:42:39;;;;;;;89.10;44.67;;;3.80;99.90;;;;;;5032165;28;20030;-59
2020/12/09 09:45:07;;;;;;;94.07;43.90;;;3.80;99.90;;;;;;5038036;28;20029;-57
2020/12/09 09:47:32;;;;;;;88.75;44.45;;;3.90;99.90;;;;;;5020557;28;20548;-60
2020/12/09 09:49:58;;;;;;;83.32;41.67;;;3.90;99.90;;;;;;5038688;28;20108;-59
2020/12/09 09:52:23;;;;;;;65.30;33.92;;;3.90;99.90;;;;;;5032404;28;20029;-59
2020/12/09 09:54:49;;;;;;;66.72;36.03;;;3.80;99.90;;;;;;5040497;28;20049;-59
2020/12/09 09:57:14;;;;;;;68.18;37.30;;;3.80;99.90;;;;;;5038930;28;20033;-59
2020/12/09 09:59:40;;;;;;;73.97;38.53;;;3.80;99.90;;;;;;5041484;28;20064;-59
2020/12/09 10:02:05;;;;;;;73.88;37.72;;;3.80;99.90;;;;;;5013281;28;20049;-59
2020/12/09 10:04:31;;;;;;;68.43;36.85;;;3.90;99.90;;;;;;5035848;28;20044;-57
2020/12/09 10:06:56;;;;;;;70.13;36.45;;;3.90;99.90;;;;;;5038262;28;20020;-58
2020/12/09 10:09:22;;;;;;;65.38;34.40;;;3.90;99.90;;;;;;5038984;28;20025;-59
2020/12/09 10:11:48;;;;;;;68.05;35.03;;;3.80;99.90;;;;;;5031574;28;20030;-59
2020/12/09 10:14:14;;;;;;;74.40;38.28;;;4.00;99.90;;;;;;5026006;28;20483;-62
2020/12/09 10:16:42;;;;;;;73.72;40.53;;;4.00;99.90;;;;;;5026267;28;20025;-59
2020/12/09 10:19:08;;;;;;;64.00;33.78;;;4.00;99.90;;;;;;5031686;28;20067;-59
2020/12/09 10:21:34;;;;;;;55.95;32.22;;;4.20;99.90;;;;;;5025702;28;20045;-61
2020/12/09 10:24:01;;;;;;;59.17;32.63;;;4.20;99.90;;;;;;5027219;28;20048;-59
2020/12/09 10:26:35;;;;;;;59.67;32.00;;;4.40;99.90;;;;;;5032364;28;20022;-59
2020/12/09 10:29:02;;;;;;;;;;;4.40;99.90;;;;;;5033662;28;20021;-58
2020/12/09 10:31:32;;;;;;;63.13;33.03;;;4.50;99.90;;;;;;5026139;28;19959;-59
2020/12/09 10:33:58;;;;;;;62.72;34.28;;;4.50;99.90;;;;;;5032388;28;20028;-59
2020/12/09 10:36:25;;;;;;;64.28;34.85;;;4.50;99.90;;;;;;5035851;28;20458;-60
2020/12/09 10:38:51;;;;;;;68.30;34.97;;;4.50;99.90;;;;;;5029495;28;20033;-59
2020/12/09 10:41:17;;;;;;;63.92;33.97;;;4.40;99.90;;;;;;5028910;28;20120;-59
2020/12/09 10:43:42;;;;;;;63.70;39.40;;;4.50;99.90;;;;;;5032313;28;20132;-60
2020/12/09 10:46:08;;;;;;;64.65;34.67;;;4.60;99.90;;;;;;5032890;28;20041;-59
2020/12/09 10:48:33;;;;;;;70.63;40.13;;;4.60;99.90;;;;;;5033696;28;20036;-57
2020/12/09 10:50:59;;;;;;;64.93;37.67;;;4.60;99.90;;;;;;5035634;28;20117;-59
2020/12/09 10:53:25;;;;;;;58.83;34.13;;;4.70;99.90;;;;;;5043458;28;20766;-59
2020/12/09 10:55:50;;;;;;;63.28;33.42;;;5.00;99.90;;;;;;5026921;28;20036;-59
2020/12/09 10:58:16;;;;;;;59.88;33.42;;;5.00;99.90;;;;;;5037515;28;20409;-60
2020/12/09 11:00:41;;;;;;;64.25;33.58;;;5.00;99.90;;;;;;5018769;28;20059;-58
2020/12/09 11:03:07;;;;;;;67.40;38.08;;;5.00;99.90;;;;;;5034995;28;20439;-59
2020/12/09 11:05:33;;;;;;;68.55;38.22;;;5.00;99.90;;;;;;5040148;28;20014;-58
2020/12/09 11:07:58;;;;;;;78.10;39.83;;;4.90;99.90;;;;;;5035089;28;20021;-60
2020/12/09 11:10:24;;;;;;;60.10;32.45;;;4.90;99.90;;;;;;5022342;28;20333;-60
2020/12/09 11:12:49;;;;;;;78.03;45.50;;;4.90;99.90;;;;;;5026864;28;20026;-58
2020/12/09 11:15:15;;;;;;;61.17;35.13;;;4.90;99.90;;;;;;5029142;28;20029;-59
2020/12/09 11:17:40;;;;;;;67.07;36.58;;;4.90;99.90;;;;;;5037983;28;20013;-59
2020/12/09 11:20:06;;;;;;;63.88;34.97;;;5.00;99.90;;;;;;5020888;28;20550;-58
2020/12/09 11:22:32;;;;;;;60.25;32.72;;;5.00;99.90;;;;;;5036828;28;20025;-56
2020/12/09 11:24:57;;;;;;;60.63;34.63;;;5.00;99.90;;;;;;5031884;28;20072;-59
2020/12/09 11:27:23;;;;;;;58.63;35.22;;;5.00;99.90;;;;;;5035343;28;20481;-59
2020/12/09 11:29:48;;;;;;;54.88;32.28;;;5.00;99.90;;;;;;5037156;28;20056;-59
2020/12/09 11:32:15;;;;;;;63.45;35.30;;;4.90;99.90;;;;;;5019965;28;20030;-58
2020/12/09 11:34:40;;;;;;;67.32;37.70;;;4.80;99.90;;;;;;5016870;28;20033;-59
2020/12/09 11:37:06;;;;;;;68.20;38.30;;;4.70;99.90;;;;;;5012332;28;20088;-59
2020/12/09 11:39:32;;;;;;;67.55;38.33;;;4.60;99.90;;;;;;5013004;28;20296;-59
2020/12/09 11:42:02;;;;;;;56.78;33.45;;;4.50;99.90;;;;;;5008150;28;20034;-58
2020/12/09 11:44:27;;;;;;;63.42;34.28;;;4.70;99.90;;;;;;5007175;28;21037;-59
2020/12/09 11:46:53;;;;;;;60.45;33.17;;;4.70;99.90;;;;;;5010042;28;20071;-60
2020/12/09 11:49:19;;;;;;;62.00;33.65;;;4.70;99.90;;;;;;5020395;28;20086;-59
2020/12/09 11:51:48;;;;;;;53.03;30.95;;;4.80;99.90;;;;;;5013629;28;20026;-57
2020/12/09 11:54:14;;;;;;;61.20;33.33;;;4.80;99.90;;;;;;5015209;28;20040;-59
2020/12/09 11:56:39;;;;;;;93.40;45.58;;;4.80;99.90;;;;;;5015354;28;20025;-59
2020/12/09 11:59:05;;;;;;;62.47;34.70;;;4.80;99.90;;;;;;5014609;28;20397;-60
2020/12/09 12:01:30;;;;;;;98.72;48.08;;;4.80;99.90;;;;;;4999569;28;20606;-60
2020/12/09 12:03:56;;;;;;;48.80;30.75;;;4.70;99.90;;;;;;5007848;28;20467;-59
2020/12/09 12:06:23;;;;;;;63.00;35.10;;;4.60;99.90;;;;;;5008923;28;20022;-58
2020/12/09 12:08:50;;;;;;;62.40;33.47;;;4.60;99.90;;;;;;5013440;28;20022;-55
2020/12/09 12:11:17;;;;;;;80.65;41.85;;;4.60;99.90;;;;;;5019319;28;20045;-59
2020/12/09 12:13:43;;;;;;;89.75;45.67;;;4.50;99.90;;;;;;5014476;28;20381;-58
2020/12/09 12:16:20;;;;;;;155.30;71.00;;;4.50;99.90;;;;;;5015310;28;20028;-60
2020/12/09 12:18:46;;;;;;;95.47;47.90;;;4.50;99.90;;;;;;5018758;28;20025;-58
2020/12/09 12:21:16;;;;;;;64.15;36.85;;;4.60;99.90;;;;;;5020163;28;20085;-60
2020/12/09 12:23:42;;;;;;;63.17;35.17;;;4.60;99.90;;;;;;5014688;28;20049;-60
2020/12/09 12:26:08;;;;;;;95.97;47.22;;;4.50;99.90;;;;;;5019664;28;20048;-60
2020/12/09 12:28:34;;;;;;;95.45;49.42;;;4.50;99.90;;;;;;5014086;28;20547;-59
2020/12/09 12:31:00;;;;;;;110.55;56.58;;;4.50;99.90;;;;;;5019138;28;20518;-57
2020/12/09 12:33:26;;;;;;;68.03;39.28;;;4.40;99.90;;;;;;5016809;28;20590;-59
2020/12/09 12:35:51;;;;;;;62.20;35.45;;;4.40;99.90;;;;;;5021865;28;20018;-59
2020/12/09 12:38:17;;;;;;;52.60;29.73;;;4.40;99.90;;;;;;5015331;28;20447;-58